Midnight Wolf — HO7969 — position and weather

sailwx.info

Track history (hours):
 
Tides and Currents Weather Stations Pressure Air Temp Water Temp Dewpoint Dewpoint Depression Visibility Wind Speed Wind Dir Waves Ship Positions

Midnight Wolf

Last reported at 2016-Dec-10 21:33 UTC. Time now 2016-Dec-11 08:06 UTC.
Position N 18°22' W 064°35'.

Length 51 m; draft 4 m.

Type: Cargo ship. MMSI: 351880000.

Date/timePositionNaut miles runAvg speedWind from/ knotsBaromVisibWave heightAir tempDewpointWater temp
2016-Dec-10 21:33N 18°22' W 064°35'2 2.1
2016-Dec-10 20:33N 18°24' W 064°36'  
2016-Dec-08 10:33N 18°22' W 064°33'86 9.5
2016-Dec-08 01:33N 17°41' W 063°14'70 9.4
2016-Dec-07 18:08N 16°53' W 062°21'6 9.7
2016-Dec-07 17:33N 16°50' W 062°16'4 3.9
2016-Dec-07 16:33N 16°48' W 062°12'0 0.0
2016-Dec-07 15:30N 16°48' W 062°12'0 0.0
2016-Dec-07 14:32N 16°48' W 062°12'0 0.0
2016-Dec-07 13:27N 16°48' W 062°12'7 6.8
2016-Dec-07 12:25N 16°42' W 062°16'8 9.1
2016-Dec-07 11:34N 16°35' W 062°13'40 9.4
2016-Dec-07 07:18N 16°00' W 061°51'16 9.2
2016-Dec-07 05:31N 15°46' W 061°42'10 0.9
2016-Dec-06 18:10N 15°37' W 061°38'6 9.1
2016-Dec-06 17:32N 15°41' W 061°42'9 9.2
2016-Dec-06 16:32N 15°49' W 061°47'37 9.2
2016-Dec-06 12:32N 16°19' W 062°10'9 9.0
2016-Dec-06 11:33N 16°25' W 062°15'9 8.6
2016-Dec-06 10:33N 16°33' W 062°21'8 8.5
2016-Dec-06 09:33N 16°39' W 062°26'74 9.2
2016-Dec-06 01:31N 17°39' W 063°11'99 8.9
2016-Dec-05 14:24N 18°16' W 064°48'4 0.2
2016-Dec-04 20:11N 18°17' W 064°52'79 9.9
2016-Dec-04 12:10N 18°08' W 063°30'610.1
2016-Dec-04 11:33N 18°07' W 063°23'10 9.8
2016-Dec-04 10:30N 18°06' W 063°13'7 7.5
2016-Dec-04 09:32N 18°05' W 063°05'0 0.0
2016-Dec-04 08:23N 18°05' W 063°05'0 0.0
2016-Dec-04 07:28N 18°05' W 063°05'0 0.0
2016-Dec-04 06:27N 18°05' W 063°05'8 8.2
2016-Dec-04 05:29N 18°07' W 063°13'73 9.1
2016-Dec-03 21:29N 18°24' W 064°28'8 1.5
2016-Dec-03 16:07N 18°25' W 064°36'3 5.7
2016-Dec-03 15:33N 18°22' W 064°35'0 0.0
2016-Dec-03 14:32N 18°22' W 064°35'3 2.8
2016-Dec-03 13:33N 18°24' W 064°37'9 8.6
2016-Dec-03 12:33N 18°23' W 064°46'9 8.8
2016-Dec-03 11:33N 18°26' W 064°54'1 0.0
2016-Dec-02 08:33N 18°27' W 064°55'8 8.5
2016-Dec-02 07:33N 18°23' W 064°47'9 8.6
2016-Dec-02 06:33N 18°23' W 064°38'4 2.0
2016-Dec-02 04:33N 18°23' W 064°34'64 9.8
2016-Dec-01 22:04N 18°09' W 063°28'5 9.8
2016-Dec-01 21:32N 18°08' W 063°23'9 9.5
2016-Dec-01 20:33N 18°06' W 063°13'8 7.6
2016-Dec-01 19:31N 18°05' W 063°05'0 0.0
2016-Dec-01 18:24N 18°05' W 063°05'0 0.0
2016-Dec-01 17:30N 18°05' W 063°05'0 0.0
2016-Dec-01 16:30N 18°05' W 063°05'0 0.0
2016-Dec-01 15:32N 18°05' W 063°05'0 0.0
2016-Dec-01 14:30N 18°05' W 063°05'0 0.4
2016-Dec-01 13:23N 18°05' W 063°06'5 6.3
2016-Dec-01 12:32N 18°02' W 063°11'10 8.8
2016-Dec-01 11:27N 17°53' W 063°09'86 9.4
2016-Dec-01 02:18N 16°37' W 062°27'810.0
2016-Dec-01 01:32N 16°31' W 062°22'  
Track history (hours):
 
Tides and Currents Weather Stations Pressure Air Temp Water Temp Dewpoint Dewpoint Depression Visibility Wind Speed Wind Dir Waves Ship Positions

Midnight Wolf

Last reported at 2016-Dec-10 21:33 UTC. Time now 2016-Dec-11 08:06 UTC.
Position N 18°22' W 064°35'.

Length 51 m; draft 4 m.

Type: Cargo ship. MMSI: 351880000.

Date/timePositionNaut miles runAvg speedWind from/ knotsBaromVisibWave heightAir tempDewpointWater temp
2016-Dec-10 21:33N 18°22' W 064°35'2 2.1
2016-Dec-10 20:33N 18°24' W 064°36'  
2016-Dec-08 10:33N 18°22' W 064°33'86 9.5
2016-Dec-08 01:33N 17°41' W 063°14'70 9.4
2016-Dec-07 18:08N 16°53' W 062°21'6 9.7
2016-Dec-07 17:33N 16°50' W 062°16'4 3.9
2016-Dec-07 16:33N 16°48' W 062°12'0 0.0
2016-Dec-07 15:30N 16°48' W 062°12'0 0.0
2016-Dec-07 14:32N 16°48' W 062°12'0 0.0
2016-Dec-07 13:27N 16°48' W 062°12'7 6.8
2016-Dec-07 12:25N 16°42' W 062°16'8 9.1
2016-Dec-07 11:34N 16°35' W 062°13'40 9.4
2016-Dec-07 07:18N 16°00' W 061°51'16 9.2
2016-Dec-07 05:31N 15°46' W 061°42'10 0.9
2016-Dec-06 18:10N 15°37' W 061°38'6 9.1
2016-Dec-06 17:32N 15°41' W 061°42'9 9.2
2016-Dec-06 16:32N 15°49' W 061°47'37 9.2
2016-Dec-06 12:32N 16°19' W 062°10'9 9.0
2016-Dec-06 11:33N 16°25' W 062°15'9 8.6
2016-Dec-06 10:33N 16°33' W 062°21'8 8.5
2016-Dec-06 09:33N 16°39' W 062°26'74 9.2
2016-Dec-06 01:31N 17°39' W 063°11'99 8.9
2016-Dec-05 14:24N 18°16' W 064°48'4 0.2
2016-Dec-04 20:11N 18°17' W 064°52'79 9.9
2016-Dec-04 12:10N 18°08' W 063°30'610.1
2016-Dec-04 11:33N 18°07' W 063°23'10 9.8
2016-Dec-04 10:30N 18°06' W 063°13'7 7.5
2016-Dec-04 09:32N 18°05' W 063°05'0 0.0
2016-Dec-04 08:23N 18°05' W 063°05'0 0.0
2016-Dec-04 07:28N 18°05' W 063°05'0 0.0
2016-Dec-04 06:27N 18°05' W 063°05'8 8.2
2016-Dec-04 05:29N 18°07' W 063°13'73 9.1
2016-Dec-03 21:29N 18°24' W 064°28'8 1.5
2016-Dec-03 16:07N 18°25' W 064°36'3 5.7
2016-Dec-03 15:33N 18°22' W 064°35'0 0.0
2016-Dec-03 14:32N 18°22' W 064°35'3 2.8
2016-Dec-03 13:33N 18°24' W 064°37'9 8.6
2016-Dec-03 12:33N 18°23' W 064°46'9 8.8
2016-Dec-03 11:33N 18°26' W 064°54'1 0.0
2016-Dec-02 08:33N 18°27' W 064°55'8 8.5
2016-Dec-02 07:33N 18°23' W 064°47'9 8.6
2016-Dec-02 06:33N 18°23' W 064°38'4 2.0
2016-Dec-02 04:33N 18°23' W 064°34'64 9.8
2016-Dec-01 22:04N 18°09' W 063°28'5 9.8
2016-Dec-01 21:32N 18°08' W 063°23'9 9.5
2016-Dec-01 20:33N 18°06' W 063°13'8 7.6
2016-Dec-01 19:31N 18°05' W 063°05'0 0.0
2016-Dec-01 18:24N 18°05' W 063°05'0 0.0
2016-Dec-01 17:30N 18°05' W 063°05'0 0.0
2016-Dec-01 16:30N 18°05' W 063°05'0 0.0
2016-Dec-01 15:32N 18°05' W 063°05'0 0.0
2016-Dec-01 14:30N 18°05' W 063°05'0 0.4
2016-Dec-01 13:23N 18°05' W 063°06'5 6.3
2016-Dec-01 12:32N 18°02' W 063°11'10 8.8
2016-Dec-01 11:27N 17°53' W 063°09'86 9.4
2016-Dec-01 02:18N 16°37' W 062°27'810.0
2016-Dec-01 01:32N 16°31' W 062°22'  

Dump ship's entire track history